Date,TemperatureHighF,TemperatureAvgF,TemperatureLowF,DewpointHighF,DewpointAvgF,DewpointLowF,HumidityHigh,HumidityAvg,HumidityLow,PressureMaxIn,PressureMinIn,WindSpeedMaxMPH,WindSpeedAvgMPH,GustSpeedMaxMPH,PrecipitationSumIn
2013-1-1,52.6,40.8,33.0,37.6,34.0,30.9,92,78,54,30.44,30.35,14,1,14,0.00
2013-1-2,53.7,41.3,30.9,38.7,33.5,28.0,90,75,51,30.41,30.28,9,0,9,0.00
2013-1-3,51.9,40.4,29.9,39.9,34.8,27.0,91,81,57,30.41,30.32,5,0,5,0.01
2013-1-4,58.0,43.0,31.4,41.1,36.5,29.3,93,79,50,30.44,30.33,5,0,5,0.00
2013-1-5,51.4,42.4,33.1,43.6,39.0,31.0,93,88,72,30.42,30.24,13,1,13,0.47
2013-1-6,52.4,45.3,39.2,46.2,42.4,36.7,97,90,75,30.33,30.22,11,1,11,0.26
2013-1-7,48.5,42.4,36.5,43.3,39.5,34.9,95,90,74,30.39,30.27,11,1,11,0.01
2013-1-8,56.4,45.7,36.9,45.9,41.3,35.1,98,85,65,30.40,30.28,6,0,6,0.01
2013-1-9,51.5,44.8,37.7,47.8,40.5,34.0,94,85,67,30.31,30.06,19,3,19,0.00
2013-1-10,49.4,40.9,33.9,38.2,32.9,30.2,90,74,49,30.29,30.16,15,1,15,0.01
2013-1-11,51.9,39.6,30.5,34.7,30.9,27.1,88,73,41,30.38,30.26,7,0,7,0.00
2013-1-12,46.6,38.3,32.4,32.9,28.3,23.3,86,69,44,30.39,30.28,10,1,10,0.00
2013-1-13,44.3,35.1,25.8,30.9,26.6,21.2,92,72,47,30.41,30.31,14,2,14,0.00
2013-1-14,49.2,39.6,30.0,28.9,24.4,20.7,76,56,36,30.56,30.35,16,2,16,0.00
2013-1-15,50.9,39.9,30.9,34.5,30.6,25.8,85,70,50,30.65,30.52,7,0,7,0.00
2013-1-16,57.2,41.8,30.5,39.3,34.1,27.9,96,76,49,30.58,30.42,7,0,7,0.00
2013-1-17,59.7,43.1,29.7,39.8,34.0,27.4,93,73,43,30.43,30.31,5,0,5,0.01
2013-1-18,58.6,43.8,30.6,42.3,35.7,28.6,93,75,37,30.40,30.28,10,1,10,0.00
2013-1-19,59.9,45.1,32.1,41.9,35.8,29.1,91,72,42,30.43,30.30,11,2,11,0.00
2013-1-20,62.9,45.4,31.7,39.7,34.8,29.3,93,69,38,30.39,30.26,7,0,7,0.00
2013-1-21,64.7,46.2,33.7,41.9,36.4,31.0,91,72,36,30.34,30.24,6,0,6,0.00
2013-1-22,60.6,46.8,33.9,44.3,38.6,31.3,91,75,49,30.30,30.16,9,1,9,0.00
2013-1-23,57.3,48.6,44.1,48.6,43.6,39.1,93,83,59,30.24,30.11,15,1,15,0.16
2013-1-24,56.2,51.5,47.3,51.5,48.7,45.4,93,90,81,30.33,30.20,15,1,15,0.07
2013-1-25,65.0,56.9,51.9,57.3,52.8,50.0,95,87,70,30.33,30.16,9,0,9,0.00
2013-1-26,62.2,52.9,45.2,52.6,47.0,39.1,95,81,49,30.16,30.04,21,4,21,0.00
2013-1-27,54.7,46.3,37.9,42.2,37.5,33.9,97,73,47,30.29,30.13,14,2,14,0.01
2013-1-28,57.3,45.9,36.6,40.2,36.5,32.9,88,71,46,30.39,30.26,18,2,18,0.00
2013-1-29,60.7,48.3,38.3,41.9,38.3,35.1,88,70,42,30.47,30.35,21,2,21,0.00
2013-1-30,62.9,49.7,39.0,44.9,40.4,35.2,92,72,50,30.49,30.39,9,1,9,0.00
2013-1-31,63.2,50.0,37.6,48.8,42.9,35.1,93,78,57,30.45,30.32,7,0,7,0.00
2013-2-1,64.3,50.1,36.7,49.0,43.3,34.6,95,79,55,30.36,30.25,10,1,10,0.01
2013-2-2,48.7,46.5,45.1,44.7,42.6,41.6,89,86,85,30.36,30.34,3,0,3,0.00
2013-2-3,63.4,55.6,47.1,49.6,46.5,42.8,87,72,58,30.32,30.24,9,1,9,0.01
2013-2-4,63.6,51.1,41.4,50.2,45.0,39.0,91,80,57,30.31,30.17,11,1,11,0.00
2013-2-5,56.9,48.6,41.6,47.0,43.0,39.0,91,82,67,30.25,30.16,17,3,17,0.00
2013-2-6,60.2,47.2,36.3,46.6,40.6,34.2,94,79,48,30.32,30.22,14,2,14,0.01
2013-2-7,57.6,47.5,42.0,47.0,39.6,33.8,89,76,42,30.28,30.11,16,4,16,0.05
2013-2-8,57.1,45.8,36.5,41.4,35.2,29.9,92,69,39,30.14,30.03,20,4,20,0.00
2013-2-9,58.6,45.7,34.4,34.4,31.7,28.5,79,59,36,30.22,30.09,11,1,11,0.00
2013-2-10,61.7,46.8,34.0,40.6,35.1,30.3,90,66,42,30.27,30.12,17,2,17,0.00
2013-2-11,64.3,49.8,36.4,36.9,32.9,27.8,76,54,33,30.36,30.19,9,1,9,0.00
2013-2-12,61.9,48.9,36.1,41.3,37.0,32.3,86,65,42,30.52,30.36,7,0,7,0.00
2013-2-13,63.9,50.6,37.2,43.7,39.1,33.2,87,67,43,30.47,30.32,7,1,7,0.00
2013-2-14,69.7,52.9,38.8,47.6,42.6,36.1,91,70,44,30.39,30.27,12,1,12,0.00
2013-2-15,70.7,55.0,41.4,49.3,44.3,38.2,90,70,43,30.43,30.34,5,0,5,0.00
2013-2-16,69.5,54.4,42.4,47.5,43.6,38.8,89,69,43,30.38,30.14,9,1,9,0.00
2013-2-17,65.8,52.8,40.0,44.7,40.4,33.6,90,65,42,30.17,30.06,11,1,11,0.00
2013-2-18,56.4,48.5,42.8,45.9,40.8,36.3,86,75,63,30.13,30.02,24,8,24,0.00
2013-2-19,47.3,43.1,36.1,43.0,38.0,33.5,90,82,72,30.04,29.85,22,5,22,0.32
2013-2-20,59.9,45.5,32.8,40.4,33.7,30.4,92,67,36,30.15,29.95,22,3,22,0.01
2013-2-21,61.4,47.8,34.9,40.8,34.9,30.8,89,64,33,30.29,30.14,19,3,19,0.00
2013-2-22,63.7,50.8,36.6,42.8,37.0,31.5,82,61,37,30.38,30.25,19,2,19,0.00
2013-2-23,59.9,50.5,42.3,43.3,34.0,26.5,87,56,29,30.37,30.24,25,6,25,0.00
2013-2-24,63.4,50.6,38.3,32.9,29.6,26.2,67,46,28,30.37,30.27,23,4,23,0.00
2013-2-25,63.5,51.3,39.2,43.8,36.1,31.8,77,57,34,30.39,30.28,14,2,14,0.00
2013-2-26,66.5,51.3,38.1,34.4,31.2,28.2,75,50,26,30.33,30.23,26,6,26,0.00
2013-2-27,69.4,53.2,38.4,41.5,35.4,30.3,76,53,28,30.47,30.32,9,1,9,0.00
2013-2-28,71.5,58.3,45.9,46.4,41.7,37.6,76,56,36,30.57,30.47,13,1,13,0.00
2013-3-1,74.3,58.9,44.7,50.6,45.9,40.4,85,64,42,30.54,30.36,12,1,12,0.00
2013-3-2,71.3,59.8,47.7,53.1,49.1,43.4,89,69,48,30.37,30.17,6,0,6,0.00
2013-3-3,66.6,58.3,49.1,52.9,49.3,44.4,84,72,58,30.19,30.12,14,3,14,0.00
2013-3-4,65.7,53.5,45.4,53.1,46.5,39.4,91,78,61,30.25,30.14,14,3,14,0.00
2013-3-5,59.0,51.6,44.3,45.2,41.3,36.6,81,68,56,30.16,29.96,24,7,24,0.13
2013-3-6,55.5,50.5,45.0,45.5,42.0,38.3,87,73,53,30.19,29.96,29,7,29,0.20
2013-3-7,59.0,50.0,40.1,43.2,40.4,36.8,89,71,51,30.13,29.99,11,1,11,0.00
2013-3-8,67.9,51.7,37.9,45.0,38.0,30.6,83,64,26,30.15,29.93,18,4,18,0.00
2013-3-9,70.7,55.0,39.8,46.0,37.8,31.8,89,58,24,30.40,30.14,22,4,22,0.00
2013-3-10,69.5,54.5,39.2,45.8,40.4,32.9,84,61,34,30.50,30.36,12,1,12,0.00
2013-3-11,73.3,57.7,42.1,49.7,44.3,38.6,88,64,36,30.39,30.20,9,0,9,0.00
2013-3-12,76.1,61.7,45.5,53.1,48.3,41.7,88,63,41,30.29,30.18,7,1,7,0.00
2013-3-13,78.5,63.5,47.5,54.6,50.7,43.8,92,65,41,30.30,30.18,12,1,12,0.00
2013-3-14,79.3,63.9,50.5,57.8,51.8,46.4,87,67,39,30.27,30.17,10,1,10,0.00
2013-3-15,78.2,61.6,49.7,54.4,49.9,45.5,88,68,35,30.23,30.11,10,1,10,0.00
2013-3-16,78.8,62.1,48.0,52.1,47.1,35.1,91,63,22,30.19,30.08,17,2,17,0.00
2013-3-17,72.5,59.3,46.7,45.9,40.0,34.8,72,52,27,30.25,30.13,14,2,14,0.00
2013-3-18,70.4,57.8,43.3,46.9,42.4,38.1,84,60,32,30.23,30.13,10,1,10,0.00
2013-3-19,69.6,58.6,48.8,51.9,46.7,41.9,89,66,46,30.26,30.16,22,2,22,0.14
2013-3-20,61.7,55.9,49.8,55.6,52.0,47.3,95,87,77,30.24,30.18,17,4,17,0.31
2013-3-21,67.6,54.8,43.5,48.5,40.7,30.1,94,64,25,30.24,30.11,18,4,18,0.00
2013-3-22,65.0,54.9,44.4,32.3,28.2,21.0,52,37,20,30.22,30.13,32,9,32,0.00
2013-3-23,71.3,55.7,41.2,38.0,31.9,27.4,60,42,21,30.28,30.14,22,3,22,0.00
2013-3-24,74.3,58.8,42.2,47.1,39.9,35.8,79,52,27,30.22,30.06,9,1,9,0.00
2013-3-25,67.8,56.8,48.2,50.2,44.1,38.3,83,64,38,30.11,30.00,24,5,24,0.00
2013-3-26,73.2,57.4,46.7,49.5,45.7,41.7,85,67,40,30.11,30.02,17,3,17,0.00
2013-3-27,69.5,58.1,48.9,53.4,48.4,42.6,85,71,53,30.13,30.04,21,5,21,0.00
2013-3-28,70.4,60.2,53.0,53.7,51.3,48.6,86,73,50,30.22,30.13,13,2,13,0.00
2013-3-29,80.2,63.3,48.1,52.3,49.5,45.3,91,65,33,30.23,30.11,12,2,12,0.00
2013-3-30,76.8,62.8,52.0,56.8,50.4,46.1,83,65,44,30.16,30.07,16,2,16,0.00
2013-3-31,69.8,59.6,55.5,56.8,52.6,48.1,93,79,48,30.21,30.10,21,2,21,0.67
2013-4-1,69.4,60.8,54.0,55.5,52.5,50.2,92,75,52,30.28,30.18,13,1,13,0.15
2013-4-2,74.7,60.8,49.2,56.4,51.7,46.6,92,74,42,30.29,30.17,11,1,11,0.00
2013-4-3,77.3,63.5,51.0,56.7,52.0,47.3,88,68,45,30.26,30.08,7,0,7,0.00
2013-4-4,65.1,58.3,52.8,58.2,52.5,42.8,92,81,57,30.23,30.08,22,6,22,0.59
2013-4-5,69.5,59.4,51.9,54.3,51.7,49.1,92,77,52,30.28,30.20,15,3,15,0.01
2013-4-6,68.5,59.3,52.9,55.9,52.0,48.8,88,77,59,30.30,30.20,14,3,14,0.00
2013-4-7,66.7,55.8,51.6,55.3,48.9,44.6,86,78,63,30.26,29.91,24,5,26,0.00
2013-4-8,68.6,58.0,49.4,48.1,37.4,32.1,89,50,27,30.12,29.86,33,10,33,0.00
2013-4-9,75.7,62.1,48.5,40.9,37.3,34.5,62,42,23,30.21,30.13,31,9,31,0.00
2013-4-10,88.3,68.9,50.6,58.2,47.9,39.6,67,49,28,30.30,30.06,14,2,14,0.00
2013-4-11,79.0,67.9,56.7,51.8,43.5,34.4,70,44,21,30.11,29.92,19,4,19,0.00
2013-4-12,84.8,64.6,49.1,57.0,45.2,37.9,78,53,22,30.01,29.89,12,1,12,0.00
2013-4-13,79.6,62.9,51.8,54.7,48.3,44.6,77,61,34,29.99,29.87,12,1,12,0.00
2013-4-14,75.1,60.8,48.6,48.6,40.4,29.0,81,50,23,30.02,29.84,23,4,23,0.00
2013-4-15,65.2,54.9,47.4,46.9,42.3,31.9,85,64,40,30.02,29.91,21,2,21,0.01
2013-4-16,67.8,56.6,47.8,34.7,30.7,26.8,60,39,23,30.28,30.02,29,8,29,0.00
2013-4-17,70.3,56.9,41.0,34.5,30.5,24.9,70,40,21,30.39,30.28,26,6,26,0.00
2013-4-18,76.2,61.8,43.7,42.0,34.2,29.4,60,38,19,30.39,30.28,13,2,13,0.00
2013-4-19,83.7,67.3,50.9,50.2,44.8,39.4,69,46,28,30.36,30.15,13,0,13,0.00
2013-4-20,84.3,69.6,54.8,47.0,39.9,31.3,58,37,15,30.22,30.05,20,4,20,0.00
2013-4-21,87.6,70.4,50.1,49.9,45.3,40.3,75,45,22,30.16,30.01,15,1,15,0.00
2013-4-22,88.5,72.7,56.3,50.1,42.7,33.1,67,39,14,30.08,29.94,22,4,22,0.00
2013-4-23,84.8,70.7,58.0,45.0,33.8,28.9,58,28,15,30.04,29.92,29,6,29,0.00
2013-4-24,89.4,68.5,50.4,50.9,41.3,33.4,74,45,14,29.97,29.84,17,4,17,0.00
2013-4-25,74.8,61.5,51.9,53.0,48.7,45.3,81,64,44,30.19,29.97,16,4,16,0.00
2013-4-26,83.4,63.8,50.2,55.8,50.1,45.9,86,64,36,30.32,30.19,14,2,14,0.00
2013-4-27,89.0,68.0,51.1,58.1,51.9,46.2,84,60,32,30.32,30.12,10,1,10,0.00
2013-4-28,91.6,73.7,54.9,55.3,50.3,39.6,80,49,17,30.15,29.95,14,1,14,0.00
2013-4-29,90.8,76.7,59.2,56.0,49.5,42.6,71,42,20,30.00,29.83,21,3,21,0.00
2013-4-30,82.6,72.9,62.5,50.6,36.2,28.4,47,28,16,29.97,29.85,33,9,33,0.00
2013-5-1,88.0,73.0,59.0,39.8,32.9,27.1,34,24,14,30.19,29.97,28,10,28,0.00
2013-5-2,91.8,74.1,54.6,42.5,36.0,30.9,45,27,12,30.29,30.15,16,2,16,0.00
2013-5-3,93.5,76.3,58.5,50.6,44.9,39.3,58,35,17,30.16,29.86,15,1,15,0.00
2013-5-4,89.0,75.1,60.3,49.6,44.3,35.7,65,37,17,29.87,29.60,24,5,24,0.00
2013-5-5,75.3,64.7,54.4,50.6,48.2,46.5,76,56,39,29.91,29.65,17,4,17,0.00
2013-5-6,72.7,63.7,59.0,55.6,52.3,48.6,88,68,47,30.07,29.91,17,3,17,0.15
2013-5-7,75.1,65.7,57.8,55.1,53.0,50.6,87,65,45,30.13,30.06,13,2,13,0.01
2013-5-8,76.5,63.9,55.7,54.9,51.7,48.1,86,66,40,30.22,30.11,17,4,17,0.00
2013-5-9,83.5,65.3,53.7,59.3,52.7,48.8,85,66,40,30.24,30.12,19,4,19,0.00
2013-5-10,87.1,68.6,53.3,62.3,54.9,48.6,85,64,42,30.27,30.13,14,3,14,0.00
2013-5-11,95.0,75.3,57.4,63.7,57.2,51.3,81,56,33,30.22,30.10,13,1,13,0.00
2013-5-12,94.2,75.6,61.2,58.7,52.4,44.0,69,48,19,30.21,30.07,15,4,15,0.00
2013-5-13,92.5,74.1,58.9,60.6,53.7,48.3,70,51,26,30.16,29.99,14,3,14,0.00
2013-5-14,88.7,72.5,58.3,59.8,54.4,47.4,80,55,36,30.01,29.95,21,4,21,0.00
2013-5-15,79.8,66.2,54.6,52.9,49.1,45.5,72,56,36,30.12,30.01,19,6,19,0.00
2013-5-16,76.8,64.5,56.4,54.0,50.4,46.9,75,61,41,30.10,30.00,23,5,23,0.00
2013-5-17,77.0,64.7,52.6,52.4,46.7,40.3,78,54,28,30.15,30.05,19,4,19,0.00
2013-5-18,83.5,66.4,52.0,53.5,48.0,43.2,80,55,27,30.23,30.13,13,2,13,0.00
2013-5-19,84.3,72.1,60.6,53.3,47.4,41.0,71,44,22,30.23,30.06,22,6,22,0.00
2013-5-20,91.8,76.1,60.0,50.0,44.2,31.9,57,35,12,30.11,29.98,20,5,20,0.00
2013-5-23,76.3,69.9,62.0,46.3,37.4,30.1,53,32,21,30.07,30.04,10,1,10,0.00
2013-5-24,78.7,64.5,51.4,47.6,43.1,29.3,76,50,17,30.11,29.99,19,3,19,0.00
2013-5-25,78.8,63.1,51.4,50.9,47.1,44.3,78,58,31,30.10,30.03,19,5,19,0.00
2013-5-26,69.8,57.8,53.3,52.7,49.2,47.4,82,74,52,30.17,30.09,14,3,14,0.00
2013-5-27,67.9,63.4,57.7,55.9,54.1,51.7,90,73,61,30.19,30.09,15,6,15,0.03
2013-5-28,79.6,67.3,57.4,57.5,54.2,49.5,90,66,37,30.10,29.98,12,2,12,0.01
2013-5-29,82.8,69.0,57.7,56.6,51.8,33.7,87,58,19,30.03,29.94,16,3,16,0.01
2013-5-30,85.9,69.7,55.2,55.9,50.6,44.9,79,54,25,30.07,29.99,13,1,13,0.00
2013-5-31,91.9,75.1,56.4,53.5,49.5,44.7,82,45,21,30.10,29.97,21,4,21,0.00
2013-6-1,94.8,79.4,61.3,58.2,53.2,47.1,71,44,23,30.00,29.83,12,1,12,0.00
2013-6-2,97.0,78.5,62.9,59.1,55.0,51.0,78,48,22,29.84,29.71,14,2,14,0.00
2013-6-3,92.1,73.9,61.0,60.3,54.5,50.3,72,53,31,29.88,29.76,18,4,18,0.00
2013-6-4,83.8,68.6,57.7,58.9,53.7,49.8,77,60,42,29.98,29.87,19,5,19,0.00
2013-6-5,88.5,68.4,54.9,61.7,54.4,49.2,83,63,40,30.08,29.93,18,4,18,0.00
2013-6-6,93.6,71.6,55.1,65.2,56.1,49.9,83,61,35,30.03,29.87,17,3,17,0.00
2013-6-7,102.9,80.5,59.0,70.6,61.1,52.1,79,55,30,29.96,29.77,15,2,15,0.00
2013-6-8,106.8,86.7,69.7,68.6,63.1,55.2,73,48,24,29.82,29.71,16,3,16,0.00
2013-6-9,82.5,70.2,60.4,59.4,55.5,52.3,75,60,45,29.94,29.78,26,8,26,0.00
2013-6-10,72.0,64.7,58.2,55.2,53.3,51.6,80,67,53,30.05,29.90,24,6,24,0.00
2013-6-11,84.7,70.6,58.0,58.4,54.0,49.4,81,59,32,30.08,29.96,19,3,19,0.00
2013-6-12,87.8,72.3,58.9,59.4,52.4,46.8,74,52,26,30.05,29.96,17,3,17,0.00
2013-6-13,86.3,71.4,56.2,54.1,47.4,38.8,70,46,19,30.18,30.03,14,1,14,0.00
2013-6-14,88.5,74.8,64.7,56.2,47.2,37.6,68,40,18,30.07,29.89,20,4,20,0.00
2013-6-15,89.5,72.7,59.0,56.8,50.3,45.6,64,47,25,30.03,29.90,18,4,18,0.00
2013-6-16,92.4,73.9,57.9,57.3,51.9,48.7,73,49,23,30.13,30.02,14,2,14,0.00
2013-6-17,78.0,64.3,58.6,55.5,51.2,48.8,72,63,46,30.15,30.03,19,4,19,0.00
2013-6-18,81.7,66.7,55.8,54.3,51.3,43.9,84,61,27,30.09,29.98,24,5,24,0.00
2013-6-19,80.4,68.6,55.5,50.4,46.5,31.8,77,49,20,30.15,30.06,15,2,15,0.00
2013-6-20,86.0,70.4,55.9,52.9,49.9,46.8,77,51,28,30.09,29.99,15,2,15,0.00
2013-6-21,88.2,73.8,57.3,55.1,50.7,40.3,79,48,19,30.06,29.97,15,2,15,0.00
2013-6-22,94.3,76.5,59.0,55.9,52.2,46.6,76,46,20,30.01,29.88,16,3,16,0.00
2013-6-23,77.8,67.8,60.6,61.0,56.7,52.7,80,68,49,29.94,29.87,19,6,25,0.01
2013-6-24,70.1,63.4,60.6,61.4,57.7,54.3,90,82,62,30.03,29.88,20,5,20,0.13
2013-6-25,76.5,67.9,62.2,68.3,63.0,59.2,93,85,68,30.10,30.00,20,4,20,0.14
2013-6-26,89.4,75.6,62.9,66.1,62.5,55.9,92,67,35,30.15,30.06,15,2,15,0.00
2013-6-27,96.2,80.1,63.6,66.0,61.4,54.6,85,57,25,30.18,30.07,11,1,11,0.00
2013-6-28,104.5,87.0,67.3,68.1,63.6,59.9,79,49,28,30.10,29.94,15,2,16,0.00
2013-6-29,107.3,89.5,72.4,69.0,62.3,54.3,68,43,18,30.00,29.84,13,2,13,0.00
2013-6-30,106.8,88.6,71.9,65.9,61.8,55.8,67,43,21,29.91,29.79,13,2,13,0.00
2013-7-1,107.3,86.7,68.6,69.8,61.7,52.5,68,46,17,29.92,29.83,11,2,11,0.00
2013-7-2,103.8,86.8,74.9,67.1,62.6,56.6,70,46,28,29.95,29.87,19,4,19,0.00
2013-7-3,105.3,86.2,70.9,70.3,62.8,56.6,64,47,28,29.97,29.79,12,2,12,0.00
2013-7-4,109.8,89.8,72.8,70.5,64.2,56.1,71,45,23,29.83,29.68,15,2,15,0.00
2013-7-5,85.9,75.0,64.4,58.5,54.6,49.8,64,50,37,29.84,29.72,21,7,21,0.00
2013-7-6,89.3,72.4,58.1,58.9,54.8,51.5,80,56,34,29.88,29.78,18,5,18,0.00
2013-7-7,94.1,76.4,59.0,60.7,52.1,34.3,78,49,14,29.92,29.84,14,3,14,0.00
2013-7-8,94.8,76.6,58.0,58.6,50.4,37.1,77,46,15,30.03,29.91,12,3,12,0.00
2013-7-9,100.8,82.7,64.2,60.1,54.4,42.5,68,42,16,30.12,29.99,12,1,12,0.00
2013-7-10,97.8,79.3,63.7,62.0,53.3,43.7,69,44,17,30.03,29.92,19,4,19,0.00
2013-7-11,90.8,71.1,55.2,55.2,51.6,46.0,81,54,24,30.01,29.90,18,6,18,0.00
2013-7-12,89.3,71.8,56.2,59.4,54.2,50.4,82,57,30,30.02,29.91,20,5,20,0.00
2013-7-13,95.0,85.1,67.5,59.0,52.6,42.9,57,35,17,30.04,29.95,14,4,14,0.00
2013-7-14,95.6,76.6,60.1,59.1,53.3,48.6,72,47,21,30.06,29.92,14,3,14,0.00
2013-7-15,87.0,69.3,55.9,56.5,52.4,48.6,79,58,27,29.98,29.85,20,6,20,0.00
2013-7-16,80.0,65.7,55.3,56.1,52.8,50.4,85,65,41,30.08,29.92,21,9,21,0.00
2013-7-17,92.6,74.7,56.4,60.5,55.6,51.6,85,55,27,30.19,30.07,13,2,13,0.00
2013-7-18,97.4,78.9,57.3,60.3,54.2,43.2,83,48,17,30.14,29.97,13,2,13,0.00
2013-7-19,100.0,79.1,59.2,62.8,56.0,51.6,77,49,22,30.01,29.84,15,2,15,0.00
2013-7-20,100.3,78.9,60.9,63.6,57.2,52.6,76,51,27,29.92,29.75,16,3,16,0.00
2013-7-21,95.8,77.2,60.6,62.8,55.7,48.6,75,50,29,29.91,29.79,21,5,21,0.00
2013-7-22,92.3,78.1,64.9,58.1,53.5,44.8,70,45,22,30.03,29.91,25,5,25,0.00
2013-7-23,92.2,78.9,68.5,58.2,53.6,49.4,58,43,26,30.08,29.94,21,3,21,0.00
2013-7-24,98.8,80.8,64.4,63.2,57.1,51.4,71,47,27,30.06,29.93,13,3,13,0.00
2013-7-25,97.8,79.8,66.7,65.3,58.1,53.4,65,49,32,30.05,29.96,19,4,19,0.00
2013-7-26,97.4,76.0,60.8,63.9,57.0,52.8,76,54,31,30.15,30.00,17,4,17,0.00
2013-7-27,92.1,81.5,66.0,62.1,58.7,54.4,67,47,34,30.05,29.88,16,6,16,0.00
2013-7-28,89.0,70.9,57.2,62.2,56.0,50.7,84,62,38,29.94,29.82,25,5,25,0.00
2013-7-29,83.0,66.7,55.3,56.2,52.9,49.3,84,64,33,30.06,29.88,21,8,21,0.00
2013-7-30,90.8,70.6,56.1,62.3,54.6,46.3,84,61,25,30.18,30.06,15,3,15,0.00
2013-7-31,89.9,70.3,56.5,58.4,53.9,50.8,83,59,28,30.16,30.01,18,4,18,0.00
2013-8-1,87.3,71.3,57.9,55.8,52.8,50.7,78,55,29,30.13,30.00,16,4,16,0.00
2013-8-2,93.2,76.3,59.9,54.7,52.5,46.6,76,48,21,30.03,29.93,14,3,14,0.00
2013-8-3,91.5,73.1,56.8,59.0,53.7,50.1,82,54,25,30.06,29.95,14,3,14,0.00
2013-8-4,90.3,70.7,55.9,59.6,53.8,49.4,82,58,30,30.08,29.97,15,4,15,0.00
2013-8-5,90.6,70.6,54.9,60.0,52.8,45.8,86,59,22,30.11,29.98,16,4,16,0.00
2013-8-6,79.5,67.1,59.5,56.7,54.0,52.3,78,64,44,30.08,30.01,23,8,23,0.00
2013-8-7,80.3,66.6,56.8,58.7,54.7,51.4,83,67,47,30.17,30.08,19,6,19,0.00
2013-8-8,84.8,68.3,57.5,59.4,54.8,51.5,86,65,35,30.11,29.98,16,3,16,0.00
2013-8-9,83.2,67.5,55.3,58.9,54.6,50.9,86,66,39,30.05,29.97,19,4,19,0.00
2013-8-10,87.2,69.5,56.9,61.6,56.0,52.8,87,65,35,30.13,30.03,16,3,16,0.00
2013-8-11,90.9,72.8,59.0,60.7,56.6,54.3,87,61,31,30.11,29.97,13,2,13,0.00
2013-8-12,91.8,73.8,58.2,61.2,54.3,46.4,83,55,22,30.08,29.99,12,2,12,0.00
2013-8-13,96.9,77.0,58.9,59.1,53.8,45.7,78,49,19,30.09,29.95,11,1,11,0.00
2013-8-14,96.6,77.5,61.8,60.1,55.1,49.7,70,49,21,30.05,29.93,15,2,15,0.00
2013-8-15,96.5,77.9,64.3,64.2,60.4,55.2,82,58,28,30.04,29.95,15,3,15,0.00
2013-8-16,97.3,79.5,65.9,65.9,60.8,53.1,84,57,24,30.07,29.97,14,2,14,0.00
2013-8-17,96.5,77.7,65.4,65.1,58.3,53.1,73,53,30,30.06,29.90,15,2,15,0.00
2013-8-18,99.7,82.2,65.2,65.3,60.9,56.6,77,51,30,29.98,29.84,11,1,11,0.00
2013-8-19,101.2,84.5,71.4,72.8,63.7,57.9,73,52,29,29.98,29.84,17,1,17,0.00
2013-8-20,95.1,79.0,67.1,70.6,60.9,55.5,70,55,38,29.97,29.84,18,3,18,0.00
2013-8-21,91.4,74.0,62.1,60.4,54.5,44.0,76,54,20,30.00,29.91,17,5,17,0.00
2013-8-22,88.8,71.3,59.2,58.2,54.1,51.4,77,57,30,30.02,29.91,16,5,16,0.00
2013-8-23,61.8,59.0,57.4,54.5,52.5,51.4,85,79,70,30.01,29.97,13,2,13,0.00
2013-8-24,90.3,79.3,67.4,60.3,57.4,54.6,70,49,33,29.96,29.88,19,5,19,0.00
2013-8-25,87.0,73.6,64.0,63.4,59.8,55.9,84,64,40,30.03,29.94,20,5,20,0.00
2013-8-26,89.4,72.2,60.2,60.2,55.7,48.1,86,60,25,30.10,29.96,14,3,14,0.00
2013-8-27,93.0,79.9,65.9,60.3,55.6,47.4,71,46,23,29.99,29.86,16,3,16,0.00
2013-8-28,93.7,75.1,61.7,62.4,58.0,48.2,83,59,23,30.00,29.92,14,3,14,0.00
2013-8-29,93.0,76.0,62.7,63.3,60.0,54.6,86,62,28,30.12,29.99,15,3,15,0.00
2013-8-30,96.7,78.9,64.1,65.1,60.4,56.6,84,57,28,30.14,29.97,10,1,10,0.00
2013-8-31,94.8,77.8,65.4,62.5,55.5,47.1,74,50,21,30.05,29.93,18,4,18,0.00
2013-9-1,91.5,74.6,63.3,59.9,55.9,48.0,75,55,25,30.02,29.92,21,6,21,0.00
2013-9-2,77.3,71.6,67.2,67.3,61.5,59.1,85,71,58,30.05,29.96,15,3,15,0.05
2013-9-3,86.1,72.5,62.8,61.1,56.2,50.8,81,60,31,30.08,29.99,17,3,17,0.01
2013-9-4,89.0,72.1,61.0,59.9,56.2,49.4,84,61,28,30.12,29.99,19,4,19,0.00
2013-9-5,88.7,72.1,60.5,59.3,56.0,50.2,83,60,28,30.09,29.99,15,4,15,0.00
2013-9-6,91.0,74.4,58.1,57.9,54.7,49.7,84,55,26,30.09,29.92,16,2,16,0.00
2013-9-7,98.1,90.1,74.4,55.9,52.3,48.6,50,29,20,29.97,29.87,8,1,8,0.00
2013-9-8,98.8,80.5,61.1,59.8,55.6,50.5,76,46,22,29.96,29.81,12,2,12,0.00
2013-9-9,100.6,81.7,62.0,61.5,56.7,53.0,74,46,25,29.89,29.72,9,1,9,0.00
2013-9-10,88.8,73.5,64.3,61.6,57.7,54.1,76,59,38,29.94,29.76,26,5,26,0.00
2013-9-11,81.0,69.2,60.5,61.0,58.1,55.1,83,69,49,30.08,29.94,19,4,19,0.00
2013-9-12,89.1,71.8,60.5,63.2,59.2,56.6,89,67,37,30.08,29.92,16,2,16,0.00
2013-9-13,93.4,73.7,60.8,63.5,58.6,55.1,85,62,36,29.98,29.79,16,3,16,0.00
2013-9-14,88.0,71.4,59.6,61.0,56.8,53.6,82,62,39,29.89,29.76,18,4,18,0.00
2013-9-15,88.6,69.8,57.3,58.3,55.4,52.2,83,63,33,29.93,29.82,18,5,18,0.00
2013-9-16,87.5,71.8,60.3,62.5,57.7,53.1,89,64,32,29.99,29.83,15,2,15,0.00
2013-9-17,84.0,69.4,59.6,56.0,54.2,50.1,80,61,33,29.97,29.87,23,5,23,0.00
2013-9-18,84.5,70.5,57.6,55.0,48.5,45.2,71,48,26,30.02,29.89,20,4,20,0.00
2013-9-19,90.9,73.1,56.1,52.4,49.1,42.8,73,46,24,29.97,29.82,6,0,6,0.00
2013-9-20,84.6,70.0,59.0,60.2,52.8,42.8,79,56,31,29.94,29.83,26,6,26,0.00
2013-9-21,68.3,62.7,56.6,58.9,56.9,53.1,92,82,63,30.00,29.90,23,3,23,0.89
2013-9-22,74.8,63.0,54.1,56.5,53.6,48.9,92,74,42,30.11,30.00,11,1,11,0.00
2013-9-23,84.8,68.4,53.4,59.0,55.2,50.0,89,66,39,30.14,30.01,10,1,10,0.00
2013-9-24,81.2,68.5,60.3,57.6,54.7,48.8,80,63,40,30.07,29.92,18,4,18,0.00
2013-9-25,72.2,63.2,53.5,51.5,44.8,39.3,78,53,32,30.03,29.90,22,4,22,0.00
2013-9-26,74.3,62.3,50.7,43.9,42.0,38.9,69,50,30,30.09,29.93,24,7,24,0.00
2013-9-27,77.3,62.8,46.7,48.1,42.5,38.3,77,50,25,30.21,30.09,14,2,14,0.00
2013-9-28,83.2,68.3,53.4,52.6,42.9,37.5,67,43,20,30.21,30.08,15,2,15,0.00
2013-9-29,78.6,67.5,57.9,59.5,56.7,52.4,84,69,52,30.21,30.12,20,5,20,0.00
2013-9-30,77.8,69.0,63.1,61.7,59.5,57.6,85,72,56,30.17,30.05,16,4,16,0.00
2013-10-1,76.5,64.7,53.4,57.8,50.3,46.1,84,62,35,30.12,30.01,12,2,12,0.00
2013-10-2,80.7,65.2,51.8,50.4,46.2,40.7,76,53,28,30.10,30.01,14,2,14,0.00
2013-10-3,74.1,62.7,51.9,41.6,38.4,34.5,63,42,26,30.16,30.03,28,9,33,0.00
2013-10-4,80.8,66.5,56.1,41.1,37.1,33.8,49,35,21,30.22,30.10,24,8,24,0.00
2013-10-5,84.3,64.1,46.0,46.1,38.4,35.0,67,43,20,30.34,30.22,8,0,8,0.00
2013-10-6,84.5,74.3,63.0,48.3,44.0,38.5,52,36,20,30.15,30.10,4,0,4,0.00
2013-10-7,85.8,76.1,59.9,47.8,42.3,35.0,53,32,18,30.10,29.94,7,1,7,0.00
2013-10-8,76.0,63.0,49.4,44.5,41.6,38.1,70,48,28,30.01,29.77,15,2,15,0.00
2013-10-9,74.8,62.1,52.9,44.1,40.6,37.1,65,47,30,29.86,29.69,22,4,22,0.00
2013-10-10,74.5,62.4,54.3,48.6,45.3,39.3,73,55,35,30.09,29.86,17,2,17,0.00
2013-10-11,76.8,62.8,51.2,50.7,47.4,44.5,82,60,35,30.18,30.06,10,1,10,0.00
2013-10-12,76.9,61.8,49.0,50.7,46.8,43.9,84,61,32,30.11,29.96,16,2,16,0.00
2013-10-13,74.8,62.1,50.9,47.7,43.6,40.1,76,53,30,30.15,29.99,19,3,19,0.00
2013-10-14,77.2,60.8,45.6,45.0,41.3,38.6,78,52,26,30.25,30.11,12,2,12,0.00
2013-10-15,81.3,62.6,46.6,43.0,39.2,36.5,74,46,23,30.18,30.05,19,3,19,0.00
2013-10-16,81.7,62.7,45.9,46.6,40.6,36.8,71,48,23,30.23,30.09,6,0,6,0.00
2013-10-17,81.4,62.8,45.9,46.4,42.1,38.6,77,51,23,30.20,30.06,10,1,10,0.00
2013-10-18,83.2,64.2,47.9,46.7,43.2,39.2,78,50,24,30.18,30.07,10,0,10,0.00
2013-10-19,84.3,64.1,45.7,48.9,44.5,38.9,81,53,25,30.20,30.09,7,0,7,0.00
2013-10-20,85.5,64.8,45.9,48.6,43.9,38.9,81,51,21,30.13,29.98,10,1,10,0.00
2013-10-21,83.0,66.1,49.2,50.3,45.7,40.5,74,50,27,30.11,30.00,6,0,6,0.00
2013-10-22,83.8,65.2,48.0,50.1,47.3,43.1,83,56,27,30.14,30.00,10,1,10,0.00
2013-10-23,86.4,64.5,46.5,49.5,45.2,41.3,82,55,22,30.06,29.94,9,1,9,0.00
2013-10-24,72.5,59.1,49.0,51.5,48.1,44.9,86,69,46,30.16,30.01,12,2,12,0.00
2013-10-25,76.5,60.8,47.4,50.6,47.6,43.7,88,65,35,30.29,30.15,11,1,11,0.00
2013-10-26,79.0,62.7,47.9,52.2,47.1,41.6,80,60,33,30.27,30.10,10,0,10,0.00
2013-10-27,67.5,56.5,48.8,51.4,46.1,41.4,82,69,51,30.11,29.68,36,8,36,0.00
2013-10-28,66.1,55.4,45.8,46.2,43.5,39.9,88,67,40,29.96,29.71,15,3,15,0.00
2013-10-29,65.0,57.0,48.7,47.7,45.5,42.4,79,66,49,30.16,29.95,10,1,10,0.00
2013-10-30,67.0,53.8,41.6,47.1,43.1,38.3,90,69,44,30.27,30.16,11,1,11,0.00
2013-10-31,71.1,56.6,44.1,46.8,43.5,39.0,89,64,39,30.30,30.18,12,0,12,0.00
2013-11-1,75.8,58.2,43.2,48.0,43.7,38.3,87,62,33,30.30,30.12,9,0,9,0.00
2013-11-2,75.0,59.7,43.8,50.7,44.9,37.0,84,60,41,30.14,29.97,13,2,13,0.00
2013-11-3,64.4,56.3,47.4,37.5,32.0,29.9,52,40,29,30.16,30.01,24,7,24,0.00
2013-11-4,68.0,55.7,42.7,34.5,32.4,30.3,64,43,26,30.18,30.01,29,6,29,0.00
2013-11-5,70.3,56.5,41.9,37.8,34.4,31.1,68,45,27,30.35,30.17,12,1,12,0.00
2013-11-6,73.3,57.5,43.4,40.9,38.1,33.6,74,51,28,30.40,30.29,8,0,8,0.00
2013-11-7,75.5,60.4,47.4,45.1,41.8,38.8,77,53,29,30.30,30.16,11,1,11,0.00
2013-11-8,76.5,59.4,44.4,45.9,41.2,37.1,77,54,30,30.20,30.05,6,0,6,0.00
2013-11-9,75.2,58.0,43.5,46.9,43.2,38.3,83,60,35,30.16,30.08,5,0,5,0.00
2013-11-10,74.5,57.8,43.8,47.0,43.8,38.9,85,63,36,30.22,30.14,6,0,6,0.00
2013-11-11,70.7,55.6,41.1,47.0,43.3,37.5,92,66,39,30.28,30.19,6,0,6,0.00
2013-11-12,71.3,60.2,52.6,45.9,43.8,40.8,69,56,36,30.39,30.25,12,1,12,0.00
2013-11-13,77.2,59.3,43.5,48.6,44.2,38.7,84,60,33,30.36,30.16,13,1,13,0.00
2013-11-14,66.0,56.6,48.5,52.3,46.8,41.6,86,70,58,30.20,29.94,9,0,9,0.00
2013-11-15,68.5,54.4,44.0,44.8,37.8,32.8,89,57,28,29.95,29.81,13,2,16,0.00
2013-11-16,64.9,54.3,47.7,44.3,41.0,38.2,79,62,40,30.04,29.85,14,2,14,0.00
2013-11-17,65.5,52.1,39.6,48.3,42.7,34.9,84,71,53,30.20,30.03,5,0,5,0.00
2013-11-18,60.7,51.8,42.0,47.6,43.9,38.4,88,75,56,30.26,30.18,14,2,14,0.00
2013-11-19,61.4,55.5,51.1,52.9,49.7,45.4,91,81,68,30.22,30.07,14,1,14,0.35
2013-11-20,57.7,55.4,54.0,55.1,53.0,51.5,92,92,90,30.08,29.95,16,3,16,0.19
2013-11-21,61.6,53.6,47.8,52.4,37.7,27.9,92,58,36,30.15,30.00,31,10,31,0.02
2013-11-22,69.9,55.9,44.4,41.3,27.5,22.1,79,35,18,30.17,30.04,30,7,30,0.00
2013-11-23,63.0,49.6,36.2,46.9,41.3,33.2,91,75,49,30.23,30.12,10,1,10,0.00
2013-11-24,62.8,49.1,37.7,45.2,40.6,34.8,90,74,51,30.38,30.23,5,0,5,0.00
2013-11-25,62.3,47.9,36.2,44.7,40.0,33.5,92,76,50,30.48,30.38,9,0,9,0.00
2013-11-26,59.9,48.4,38.0,44.3,40.0,34.8,90,74,49,30.41,30.18,6,0,6,0.00
2013-11-27,62.5,50.1,40.2,46.4,41.7,36.9,89,74,55,30.18,29.99,10,1,10,0.00
2013-11-28,70.3,54.0,41.3,45.8,41.8,37.3,86,66,38,30.18,30.00,8,0,8,0.00
2013-11-29,69.5,53.6,40.2,45.1,41.6,36.3,87,66,39,30.33,30.17,9,0,9,0.00
2013-11-30,67.0,52.9,42.3,45.8,41.9,37.3,85,68,44,30.41,30.30,8,0,8,0.00
2013-12-1,68.3,53.1,39.9,47.4,42.9,36.1,92,70,46,30.48,30.33,5,0,5,0.00
2013-12-2,65.8,52.9,40.5,48.1,43.9,36.2,87,73,51,30.35,30.01,17,2,17,0.00
2013-12-3,55.1,50.3,40.1,49.9,33.5,21.9,87,55,29,30.05,29.92,29,7,29,0.00
2013-12-4,48.2,39.5,31.7,24.3,19.7,15.2,64,46,29,30.21,30.04,22,5,22,0.00
2013-12-5,48.9,37.3,28.3,23.1,19.5,16.6,66,50,29,30.30,30.20,12,1,12,0.00
2013-12-6,46.2,38.5,27.7,35.8,27.8,20.6,84,66,53,30.34,30.03,29,4,29,0.39
2013-12-7,44.7,38.5,30.3,38.2,31.0,25.1,90,76,50,30.38,30.01,20,2,20,0.00
2013-12-8,41.9,33.2,26.6,26.6,24.2,21.3,86,70,48,30.47,30.37,13,2,13,0.00
2013-12-9,48.4,35.4,24.3,29.9,25.2,19.3,82,67,42,30.58,30.44,7,0,7,0.00
2013-12-10,52.4,37.8,25.7,31.4,27.3,22.1,87,68,40,30.57,30.33,7,0,7,0.00
2013-12-11,55.6,40.9,29.3,34.7,29.7,24.8,89,67,37,30.41,30.32,6,0,6,0.00
2013-12-12,59.9,42.3,29.1,37.0,31.2,25.7,88,68,38,30.42,30.29,9,0,9,0.00
2013-12-13,59.4,44.4,31.8,36.5,33.0,28.1,87,66,40,30.46,30.35,11,1,11,0.00
2013-12-14,59.4,45.2,31.8,38.4,33.6,26.8,84,66,43,30.56,30.44,6,0,6,0.00
2013-12-15,60.9,44.1,30.9,40.2,34.7,28.0,90,72,41,30.52,30.38,6,0,6,0.00
2013-12-16,65.0,46.8,33.4,41.0,35.9,29.4,86,68,39,30.39,30.26,4,0,4,0.00
2013-12-17,62.0,47.5,36.4,43.5,38.2,31.8,92,72,45,30.33,30.16,9,0,9,0.00
2013-12-18,59.0,48.6,39.5,43.5,39.5,34.6,89,72,50,30.16,29.82,11,1,11,0.00
2013-12-19,59.0,48.0,37.2,42.8,31.6,20.5,89,58,31,30.04,29.80,32,8,32,0.00
2013-12-20,62.5,48.4,37.7,34.4,23.3,17.5,68,39,20,30.14,30.03,19,3,19,0.00
2013-12-21,52.2,40.7,34.4,38.0,32.6,28.9,82,73,57,30.20,30.09,6,0,6,0.00
2013-12-22,62.2,54.0,44.5,38.3,37.0,35.5,71,54,41,30.42,30.33,5,0,5,0.00
2013-12-23,62.2,47.9,35.5,41.1,37.0,31.5,92,68,44,30.55,30.42,6,1,7,0.00
2013-12-24,63.9,49.2,36.9,42.8,38.6,32.8,86,68,45,30.46,30.33,9,0,9,0.00
2013-12-25,62.7,47.1,33.6,44.3,38.1,30.1,89,72,50,30.46,30.33,7,0,7,0.00
2013-12-26,63.8,46.6,31.7,42.9,35.6,28.8,90,69,38,30.41,30.31,5,0,6,0.00
2013-12-27,57.6,44.8,32.9,40.2,35.0,28.6,87,70,47,30.39,30.25,7,0,7,0.00
2013-12-28,68.3,46.0,31.5,37.6,31.7,27.8,92,62,29,30.27,30.12,19,3,19,0.00
2013-12-29,62.8,47.8,35.0,39.5,34.7,28.4,78,62,41,30.34,30.21,9,0,9,0.00
2013-12-30,60.9,46.6,33.0,38.8,35.0,29.6,88,66,41,30.40,30.32,5,0,6,0.00
2013-12-31,63.1,48.2,38.7,39.0,35.2,32.6,84,64,35,30.40,30.27,11,1,11,0.00
2014-1-1,62.4,48.2,37.0,37.1,34.3,30.2,78,60,38,30.35,30.24,7,0,7,0.00
2014-1-2,65.4,48.0,35.3,39.3,35.3,30.9,92,65,34,30.33,30.18,10,1,10,0.00